Ana Sayfa
METAR-TAF:

METAR-TAF

Havaalanları :

Mineral Wells Airport

Mineral Wells, Teksas, Amerika Birleşik Devletleri

Enlem: 32-46-54N, Boylam: 098-03-37W, yükseklik: 297 m

Güncel hava durumu gözlemi

Rapor saat 04:53 UTC de 26 dakika önce yapıldı.
Rüzgar güneydoğudan 9 kt
Sıcaklık 7°C
Nem 76%
Basınç 1024 hPa
Görüş mesafesi: 11.3 km
5000 ft yükseklikte çok bulutlu
hafif yağmur

METAR: KMWL 220453Z AUTO 13009KT 7SM -RA OVC050 07/03 A3023 RMK AO2 SLP235 P0002 T00670033

Saat: 23:19 (05:19 UTC)


TAF: eksik

4.000'den fazla havaalanı için hava durumu gözlemleri ve tahminleri (METAR ve TAF raporları).

Kullanılabilir istasyonlar harita üzerinde sarı ve kırmızı noktalarla gösterilir.

İstasyonun adını görmek için fareyi noktanın üzerinde gezdirin.

Sonrasında hava gözlem ve tahminlerini görmek için tıklayın.

Haritayı değiştirmek için: yaklaştırmak için siyah artı işaretli yeşil düğmeye ve uzaklaştırmak için de eksi işaretli düğmeye hızla tıklayın; bitişik haritalar için yeşil okları kullanın.


METAR-TAF: